Portada
METAR-TAF:

METAR-TAF

Aeroports :

Vero Beach Municipal Airport

Vero Beach, Florida, Estats Units d'Amèrica

latitud: 27-39-20N, longitud: 080-25-05W, altitud: 7 m

Observació

L'informe es va fer fa 29 minuts, a les 16:53 UTC
Vent 11 kt del Nord-Oest
Temperatura 17°C
Humitat 42%
Pressió 1022 hPa
Visibilitat: 16.1 km
Cel clar

METAR: KVRB 271653Z 32011KT 10SM CLR 17/04 A3018 RMK AO2 SLP217 T01670039

Hora: 12:22 (17:22 UTC)

Pronòstic

L'informe es va fer fa 5 hores i 55 minuts, a les 11:27 UTC
Pronòstic vàlid del 27 a les 12 UTC al 28 a les 12 UTC
Vent 13 kt del Nord-Oest amb ràfegues de 20 kt
Visibilitat: 10 km
Cel clar
A partir de les 28 a les 0200 UTC
Vent 4 kt del Nord-Oest
Visibilitat: 10 km
Cel clar

TAF: KVRB 271127Z 2712/2812 32013G20KT P6SM SKC FM280200 31004KT P6SM SKC

Observacions i pronòstics meteorològics de més de 4000 aeroports (METAR i TAF).

Les estacions disponibles són els punts grocs i vermells al mapa.

Posi el ratolí al punt desitjat per veure el nom de l'estació.

Feu clic per veure les observacions i els pronòstics meteorològics.

Per canviar el mapa: feu clic els botons verds amb una creu de color negre per apropar; al botó verd amb un guió per allunyar la imatge; o en les fletxes verdes per a mapes adjacents.


METAR-TAF: